Highland Park, Michigan
Current Conditions -  °F | °C
As of 3:08 PM on Thursday 29 Jan 2015 (Local Time) from KDET Reporting Station
Light Snow Light Snow  
Wind Chill: 29°   Ceiling: 2600
Heat Index: 35°   Visibility: 1.2mi
Dew Point: 28°   Wind: 8mph
Humidity: 76%   Direction: 310°NW
Pressure: 29.73"   Gusts: NA
Location:  42.41°N, 83.09°W
Report Text: KDET 292008Z 31007KT 1 1/4SM -SN BKN026 OVC036 02/M02 A2973 RMK AO2 P0000 T00171022
Loading
Personal Weather Stations






























Interactive Weather Map New forecast layout! Learn more

10-Day Weather Forecast

Advertisements
Track Severe Weather on mobile